createdAt,value
2018-09-13T00:00:47.514Z,8.40
2018-09-13T00:01:47.478Z,6.70
2018-09-13T00:02:47.511Z,7.00
2018-09-13T00:03:47.483Z,7.20
2018-09-13T00:04:47.463Z,7.30
2018-09-13T00:05:47.514Z,7.60
2018-09-13T00:06:47.458Z,8.00
2018-09-13T00:07:47.473Z,7.90
2018-09-13T00:08:47.399Z,8.10
2018-09-13T00:09:47.436Z,5.10
2018-09-13T00:10:47.398Z,8.30
2018-09-13T00:11:47.372Z,6.50
2018-09-13T00:12:47.360Z,6.50
2018-09-13T00:13:47.504Z,7.40
2018-09-13T00:14:47.352Z,6.60
2018-09-13T00:15:47.331Z,9.20
2018-09-13T00:16:47.319Z,7.30
2018-09-13T00:17:47.302Z,6.40
2018-09-13T00:18:47.304Z,8.40
2018-09-13T00:19:47.274Z,7.80
2018-09-13T00:20:47.277Z,7.80
2018-09-13T00:21:47.250Z,7.10
2018-09-13T00:22:47.254Z,6.80
2018-09-13T00:23:47.225Z,8.30
2018-09-13T00:24:47.221Z,10.70
2018-09-13T00:25:47.214Z,8.80
2018-09-13T00:26:47.227Z,6.20
2018-09-13T00:27:47.234Z,9.00
2018-09-13T00:28:47.179Z,8.60
2018-09-13T00:29:47.164Z,9.60
2018-09-13T00:30:47.149Z,7.20
2018-09-13T00:31:47.161Z,6.80
2018-09-13T00:32:47.189Z,8.80
2018-09-13T00:33:47.134Z,7.30
2018-09-13T00:34:47.106Z,7.00
2018-09-13T00:35:47.091Z,8.60
2018-09-13T00:36:47.085Z,6.80
2018-09-13T00:37:47.067Z,7.80
2018-09-13T00:38:47.080Z,7.50
2018-09-13T00:39:47.073Z,9.60
2018-09-13T00:40:47.074Z,8.40
2018-09-13T00:41:47.030Z,8.10
2018-09-13T00:42:47.012Z,7.30
2018-09-13T00:43:47.013Z,6.30
2018-09-13T00:44:47.000Z,9.00
2018-09-13T00:45:47.058Z,7.60
2018-09-13T00:46:46.975Z,7.10
2018-09-13T00:47:47.008Z,9.10
2018-09-13T00:48:46.950Z,8.30
2018-09-13T00:49:46.942Z,9.50
2018-09-13T00:50:46.942Z,10.50
2018-09-13T00:51:46.958Z,8.20
2018-09-13T00:52:46.911Z,7.90
2018-09-13T00:53:46.918Z,7.90
2018-09-13T00:54:46.884Z,9.20
2018-09-13T00:55:46.877Z,7.80
2018-09-13T00:56:46.887Z,8.70
2018-09-13T00:57:46.892Z,11.60
2018-09-13T00:58:46.841Z,9.60
2018-09-13T00:59:46.824Z,10.60
2018-09-13T01:00:46.822Z,9.20
2018-09-13T01:01:46.823Z,7.90
2018-09-13T01:02:46.796Z,9.20
2018-09-13T01:03:46.796Z,9.50
2018-09-13T01:04:46.776Z,9.20
2018-09-13T01:05:46.761Z,10.60
2018-09-13T01:06:46.795Z,9.70
2018-09-13T01:07:46.782Z,9.10
2018-09-13T01:08:46.730Z,9.50
2018-09-13T01:09:46.732Z,9.00
2018-09-13T01:10:46.702Z,8.10
2018-09-13T01:11:46.697Z,9.90
2018-09-13T01:12:46.679Z,8.60
2018-09-13T01:13:46.695Z,12.10
2018-09-13T01:14:46.662Z,9.10
2018-09-13T01:15:46.672Z,6.50
2018-09-13T01:16:46.636Z,10.70
2018-09-13T01:17:46.628Z,9.40
2018-09-13T01:18:46.636Z,6.90
2018-09-13T01:19:46.602Z,8.80
2018-09-13T01:20:46.590Z,8.70
2018-09-13T01:21:46.621Z,11.40
2018-09-13T01:22:46.590Z,7.70
2018-09-13T01:23:46.556Z,8.40
2018-09-13T01:24:46.560Z,8.80
2018-09-13T01:25:46.537Z,10.40
2018-09-13T01:26:46.527Z,8.00
2018-09-13T01:27:46.555Z,7.90
2018-09-13T01:28:46.500Z,8.80
2018-09-13T01:29:46.531Z,10.00
2018-09-13T01:30:46.483Z,9.50
2018-09-13T01:31:46.474Z,9.20
2018-09-13T01:32:46.463Z,8.40
2018-09-13T01:33:46.452Z,10.40
2018-09-13T01:34:46.456Z,9.20
2018-09-13T01:35:46.424Z,8.30
2018-09-13T01:36:46.455Z,8.70
2018-09-13T01:37:46.411Z,7.10
2018-09-13T01:38:46.389Z,8.70
2018-09-13T01:39:46.379Z,9.40
2018-09-13T01:40:46.381Z,8.70
2018-09-13T01:41:46.358Z,8.20
2018-09-13T01:42:46.371Z,8.80
2018-09-13T01:43:46.338Z,9.90
2018-09-13T01:44:46.330Z,11.60
2018-09-13T01:45:46.312Z,10.60
2018-09-13T01:46:46.349Z,8.70
2018-09-13T01:47:46.297Z,7.70
2018-09-13T01:48:46.297Z,8.50
2018-09-13T01:49:46.274Z,8.10
2018-09-13T01:50:46.260Z,7.70
2018-09-13T01:51:46.249Z,9.90
2018-09-13T01:52:46.243Z,10.10
2018-09-13T01:53:46.246Z,7.80
2018-09-13T01:54:46.212Z,9.80
2018-09-13T01:55:46.215Z,8.90
2018-09-13T01:56:46.194Z,8.80
2018-09-13T01:57:46.183Z,11.10
2018-09-13T01:58:46.199Z,10.50
2018-09-13T01:59:46.198Z,11.10
2018-09-13T02:00:46.165Z,10.00
2018-09-13T02:01:46.135Z,10.00
2018-09-13T02:02:46.126Z,9.10
2018-09-13T02:03:46.113Z,11.20
2018-09-13T02:04:46.138Z,8.60
2018-09-13T02:05:46.094Z,10.50
2018-09-13T02:06:46.110Z,13.20
2018-09-13T02:07:46.067Z,8.50
2018-09-13T02:08:46.060Z,12.00
2018-09-13T02:09:46.048Z,11.80
2018-09-13T02:10:46.062Z,11.60
2018-09-13T02:11:46.025Z,12.20
2018-09-13T02:12:46.019Z,11.50
2018-09-13T02:13:45.999Z,13.00
2018-09-13T02:14:46.011Z,11.00
2018-09-13T02:15:45.996Z,12.40
2018-09-13T02:16:46.008Z,10.20
2018-09-13T02:17:45.963Z,12.60
2018-09-13T02:18:45.956Z,10.80
2018-09-13T02:19:45.952Z,10.20
2018-09-13T02:20:45.945Z,11.30
2018-09-13T02:21:45.913Z,10.90
2018-09-13T02:22:45.910Z,14.50
2018-09-13T02:23:45.894Z,13.30
2018-09-13T02:24:45.874Z,11.80
2018-09-13T02:25:45.868Z,9.30
2018-09-13T02:26:45.898Z,12.10
2018-09-13T02:27:45.847Z,13.90
2018-09-13T02:28:45.845Z,10.80
2018-09-13T02:29:45.817Z,11.50
2018-09-13T02:30:45.810Z,10.90
2018-09-13T02:31:45.805Z,11.20
2018-09-13T02:32:45.812Z,10.80
2018-09-13T02:33:45.783Z,11.10
2018-09-13T02:34:45.779Z,10.50
2018-09-13T02:35:45.755Z,9.00
2018-09-13T02:36:45.795Z,10.90
2018-09-13T02:37:45.730Z,15.60
2018-09-13T02:38:45.721Z,13.70
2018-09-13T02:39:45.713Z,14.10
2018-09-13T02:40:45.715Z,12.80
2018-09-13T02:41:45.685Z,13.90
2018-09-13T02:42:45.697Z,11.90
2018-09-13T02:43:45.665Z,13.60
2018-09-13T02:44:45.659Z,13.70
2018-09-13T02:45:45.643Z,14.00
2018-09-13T02:46:45.634Z,15.30
2018-09-13T02:47:45.616Z,12.70
2018-09-13T02:48:45.623Z,16.10
2018-09-13T02:49:45.602Z,12.90
2018-09-13T02:50:45.700Z,14.10
2018-09-13T02:51:45.571Z,15.30
2018-09-13T02:52:45.590Z,16.00
2018-09-13T02:53:45.558Z,15.30
2018-09-13T02:54:45.547Z,13.20
2018-09-13T02:55:45.533Z,13.10
2018-09-13T02:56:45.523Z,13.50
2018-09-13T02:57:45.506Z,12.60
2018-09-13T02:58:45.522Z,15.40
2018-09-13T02:59:45.504Z,16.00
2018-09-13T03:00:45.470Z,16.10
2018-09-13T03:01:45.466Z,15.20
2018-09-13T03:02:45.449Z,15.50
2018-09-13T03:03:45.451Z,14.00
2018-09-13T03:04:45.451Z,15.60
2018-09-13T03:05:45.438Z,15.40
2018-09-13T03:06:45.405Z,14.70
2018-09-13T03:07:45.400Z,14.00
2018-09-13T03:08:45.387Z,13.50
2018-09-13T03:09:45.394Z,13.70
2018-09-13T03:10:45.363Z,16.40
2018-09-13T03:11:45.356Z,16.30
2018-09-13T03:12:45.337Z,17.80
2018-09-13T03:13:45.327Z,14.10
2018-09-13T03:14:45.337Z,14.00
2018-09-13T03:15:45.323Z,15.50
2018-09-13T03:16:45.291Z,16.10
2018-09-13T03:17:45.295Z,18.20
2018-09-13T03:18:45.277Z,16.10
2018-09-13T03:19:45.258Z,15.20
2018-09-13T03:20:45.268Z,18.70
2018-09-13T03:21:45.239Z,17.20
2018-09-13T03:22:45.225Z,15.20
2018-09-13T03:23:45.229Z,17.30
2018-09-13T03:24:45.204Z,16.50
2018-09-13T03:25:45.206Z,15.90
2018-09-13T03:26:45.193Z,16.60
2018-09-13T03:27:45.168Z,16.70
2018-09-13T03:28:45.159Z,15.20
2018-09-13T03:29:45.159Z,17.50
2018-09-13T03:30:45.164Z,20.00
2018-09-13T03:31:45.130Z,17.80
2018-09-13T03:32:45.138Z,17.30
2018-09-13T03:33:45.112Z,15.60
2018-09-13T03:34:45.097Z,18.10
2018-09-13T03:35:45.101Z,15.90
2018-09-13T03:36:45.068Z,19.10
2018-09-13T03:37:45.056Z,17.80
2018-09-13T03:38:45.064Z,17.30
2018-09-13T03:39:45.038Z,18.40
2018-09-13T03:40:45.025Z,17.80
2018-09-13T03:41:45.045Z,19.30
2018-09-13T03:42:45.001Z,19.10
2018-09-13T03:43:45.006Z,18.50
2018-09-13T03:44:44.978Z,20.80
2018-09-13T03:45:44.967Z,18.50
2018-09-13T03:46:44.980Z,21.90
2018-09-13T03:47:44.954Z,20.60
2018-09-13T03:48:44.934Z,20.80
2018-09-13T03:49:44.920Z,22.40
2018-09-13T03:50:44.916Z,19.50
2018-09-13T03:51:44.904Z,20.10
2018-09-13T03:52:44.929Z,19.30
2018-09-13T03:53:44.880Z,19.20
2018-09-13T03:54:44.870Z,19.90
2018-09-13T03:55:44.866Z,18.30
2018-09-13T03:56:44.843Z,19.70
2018-09-13T03:57:44.831Z,19.70
2018-09-13T03:58:44.839Z,19.60
2018-09-13T03:59:44.861Z,20.30
2018-09-13T04:00:44.809Z,18.80
2018-09-13T04:01:44.801Z,19.20
2018-09-13T04:02:44.778Z,18.90
2018-09-13T04:03:44.803Z,20.70
2018-09-13T04:04:44.752Z,19.50
2018-09-13T04:05:44.765Z,18.70
2018-09-13T04:06:44.729Z,17.50
2018-09-13T04:07:44.722Z,20.90
2018-09-13T04:08:44.737Z,22.70
2018-09-13T04:09:44.703Z,19.00
2018-09-13T04:10:44.682Z,19.20
2018-09-13T04:11:44.684Z,17.90
2018-09-13T04:12:44.668Z,19.90
2018-09-13T04:13:44.657Z,20.40
2018-09-13T04:14:44.662Z,19.90
2018-09-13T04:15:44.703Z,19.60
2018-09-13T04:16:44.644Z,21.30
2018-09-13T04:17:44.649Z,17.60
2018-09-13T04:18:44.647Z,18.40
2018-09-13T04:19:44.588Z,20.20
2018-09-13T04:20:44.580Z,19.80
2018-09-13T04:21:44.587Z,19.30
2018-09-13T04:22:44.574Z,20.30
2018-09-13T04:23:44.597Z,21.80
2018-09-13T04:24:44.529Z,22.00
2018-09-13T04:25:44.518Z,19.10
2018-09-13T04:26:44.507Z,21.70
2018-09-13T04:27:44.513Z,22.50
2018-09-13T04:28:44.502Z,20.30
2018-09-13T04:29:44.484Z,23.80
2018-09-13T04:30:44.466Z,21.00
2018-09-13T04:31:44.478Z,21.90
2018-09-13T04:32:44.442Z,21.20
2018-09-13T04:33:44.433Z,21.60
2018-09-13T04:34:44.419Z,22.00
2018-09-13T04:35:44.535Z,22.40
2018-09-13T04:36:44.406Z,22.70
2018-09-13T04:37:44.419Z,21.70
2018-09-13T04:38:44.379Z,23.30
2018-09-13T04:39:44.365Z,21.30
2018-09-13T04:40:44.349Z,17.90
2018-09-13T04:41:44.369Z,22.80
2018-09-13T04:42:44.324Z,20.70
2018-09-13T04:43:44.334Z,20.10
2018-09-13T04:44:44.323Z,24.40
2018-09-13T04:45:44.341Z,22.20
2018-09-13T04:46:44.283Z,24.00
2018-09-13T04:47:44.340Z,22.40
2018-09-13T04:48:44.258Z,25.20
2018-09-13T04:49:44.246Z,22.00
2018-09-13T04:50:44.236Z,24.70
2018-09-13T04:51:44.225Z,21.60
2018-09-13T04:52:44.221Z,21.20
2018-09-13T04:53:44.240Z,22.80
2018-09-13T04:54:44.199Z,22.00
2018-09-13T04:55:44.179Z,23.00
2018-09-13T04:56:44.189Z,20.00
2018-09-13T04:57:44.196Z,21.30
2018-09-13T04:58:44.174Z,22.40
2018-09-13T04:59:44.151Z,25.40
2018-09-13T05:00:44.124Z,22.80
2018-09-13T05:01:44.134Z,24.40
2018-09-13T05:02:44.110Z,22.00
2018-09-13T05:03:44.118Z,25.00
2018-09-13T05:04:44.114Z,22.80
2018-09-13T05:05:44.067Z,21.60
2018-09-13T05:06:44.172Z,25.30
2018-09-13T05:07:44.046Z,24.40
2018-09-13T05:08:44.040Z,25.40
2018-09-13T05:09:44.021Z,24.20
2018-09-13T05:10:44.007Z,23.10
2018-09-13T05:11:44.021Z,21.90
2018-09-13T05:12:44.078Z,22.90
2018-09-13T05:13:44.849Z,27.50
2018-09-13T05:14:43.969Z,26.20
2018-09-13T05:15:43.959Z,28.30
2018-09-13T05:16:43.967Z,22.10
2018-09-13T05:17:44.006Z,25.00
2018-09-13T05:18:43.953Z,26.30
2018-09-13T05:19:43.939Z,25.20
2018-09-13T05:20:43.926Z,29.00
2018-09-13T05:21:43.886Z,26.20
2018-09-13T05:22:43.880Z,27.00
2018-09-13T05:23:43.966Z,28.90
2018-09-13T05:24:43.936Z,24.60
2018-09-13T05:25:43.904Z,27.80
2018-09-13T05:26:43.840Z,25.50
2018-09-13T05:28:41.737Z,26.90
2018-09-13T05:29:41.382Z,24.90
2018-09-13T05:30:41.383Z,29.20
2018-09-13T05:31:41.235Z,22.90
2018-09-13T05:32:41.379Z,25.40
2018-09-13T05:33:48.205Z,24.30
2018-09-13T05:34:42.888Z,22.20
2018-09-13T05:35:41.166Z,27.00
2018-09-13T05:36:41.169Z,27.00
2018-09-13T05:37:41.156Z,25.40
2018-09-13T05:38:41.172Z,28.50
2018-09-13T05:39:41.138Z,26.70
2018-09-13T05:40:41.120Z,24.40
2018-09-13T05:41:41.112Z,25.30
2018-09-13T05:42:41.088Z,26.40
2018-09-13T05:43:41.065Z,26.60
2018-09-13T05:44:41.182Z,26.40
2018-09-13T05:45:41.052Z,26.20
2018-09-13T05:46:41.046Z,25.00
2018-09-13T05:47:41.071Z,27.40
2018-09-13T05:48:41.019Z,26.20
2018-09-13T05:49:40.998Z,24.90
2018-09-13T05:50:41.076Z,28.00
2018-09-13T05:51:41.023Z,24.10
2018-09-13T05:52:40.961Z,24.30
2018-09-13T05:53:40.963Z,29.00
2018-09-13T05:54:40.944Z,23.50
2018-09-13T05:55:40.937Z,27.00
2018-09-13T05:56:40.932Z,24.50
2018-09-13T05:57:40.922Z,23.80
2018-09-13T05:58:40.897Z,22.20
2018-09-13T05:59:40.917Z,23.90
2018-09-13T06:00:40.872Z,21.40
2018-09-13T06:01:40.878Z,21.20
2018-09-13T06:02:40.885Z,23.30
2018-09-13T06:03:40.850Z,18.80
2018-09-13T06:04:40.834Z,24.30
2018-09-13T06:05:40.938Z,21.70
2018-09-13T06:06:40.804Z,22.40
2018-09-13T06:07:40.793Z,24.40
2018-09-13T06:08:40.819Z,24.20
2018-09-13T06:09:41.373Z,25.50
2018-09-13T06:10:40.756Z,21.90
2018-09-13T06:11:40.778Z,23.90
2018-09-13T06:12:40.744Z,23.50
2018-09-13T06:13:40.850Z,24.90
2018-09-13T06:14:40.781Z,25.40
2018-09-13T06:15:40.702Z,22.90
2018-09-13T06:16:40.697Z,22.50
2018-09-13T06:17:40.708Z,23.00
2018-09-13T06:18:40.668Z,23.80
2018-09-13T06:19:40.717Z,24.70
2018-09-13T06:20:40.646Z,22.00
2018-09-13T06:21:40.642Z,20.70
2018-09-13T06:22:40.637Z,23.60
2018-09-13T06:23:40.659Z,20.40
2018-09-13T06:24:40.619Z,22.60
2018-09-13T06:25:40.603Z,21.00
2018-09-13T06:26:40.579Z,22.40
2018-09-13T06:27:40.572Z,22.20
2018-09-13T06:28:40.556Z,24.20
2018-09-13T06:29:40.626Z,22.70
2018-09-13T06:30:40.588Z,23.70
2018-09-13T06:31:40.545Z,21.00
2018-09-13T06:32:40.513Z,22.90
2018-09-13T06:33:40.498Z,24.00
2018-09-13T06:34:40.498Z,23.80
2018-09-13T06:35:40.489Z,22.40
2018-09-13T06:36:40.508Z,20.10
2018-09-13T06:37:40.460Z,22.70
2018-09-13T06:38:40.453Z,21.20
2018-09-13T06:39:40.437Z,21.50
2018-09-13T06:40:40.425Z,21.40
2018-09-13T06:41:40.433Z,24.30
2018-09-13T06:42:40.425Z,20.40
2018-09-13T06:43:40.388Z,21.80
2018-09-13T06:44:40.383Z,23.00
2018-09-13T06:45:40.371Z,22.20
2018-09-13T06:46:40.390Z,20.50
2018-09-13T06:47:40.349Z,19.30
2018-09-13T06:48:40.402Z,18.50
2018-09-13T06:49:40.330Z,20.10
2018-09-13T06:50:40.341Z,21.50
2018-09-13T06:51:40.304Z,19.70
2018-09-13T06:52:40.338Z,19.70
2018-09-13T06:53:40.297Z,23.90
2018-09-13T06:54:40.264Z,22.20
2018-09-13T06:55:40.269Z,20.20
2018-09-13T06:56:40.247Z,21.00
2018-09-13T06:57:40.249Z,20.80
2018-09-13T06:58:40.234Z,22.10
2018-09-13T06:59:40.214Z,26.70
2018-09-13T07:00:40.207Z,20.40
2018-09-13T07:01:40.234Z,22.50
2018-09-13T07:02:40.209Z,21.20
2018-09-13T07:03:40.179Z,20.40
2018-09-13T07:04:40.156Z,21.10
2018-09-13T07:05:40.152Z,19.60
2018-09-13T07:06:40.138Z,22.70
2018-09-13T07:07:40.140Z,18.10
2018-09-13T07:08:40.143Z,21.00
2018-09-13T07:09:40.107Z,23.00
2018-09-13T07:10:40.093Z,20.80
2018-09-13T07:11:40.078Z,20.00
2018-09-13T07:12:40.067Z,19.60
2018-09-13T07:13:40.070Z,21.10
2018-09-13T07:14:40.065Z,22.00
2018-09-13T07:15:40.031Z,21.00
2018-09-13T07:16:40.035Z,19.80
2018-09-13T07:17:40.015Z,23.40
2018-09-13T07:18:40.018Z,19.30
2018-09-13T07:19:39.988Z,22.40
2018-09-13T07:20:39.983Z,20.00
2018-09-13T07:21:39.966Z,20.60
2018-09-13T07:22:39.955Z,21.80
2018-09-13T07:23:40.014Z,19.20
2018-09-13T07:24:39.945Z,18.80
2018-09-13T07:25:39.924Z,21.50
2018-09-13T07:26:39.947Z,22.30
2018-09-13T07:27:39.907Z,19.90
2018-09-13T07:28:39.907Z,18.60
2018-09-13T07:29:39.882Z,20.30
2018-09-13T07:30:39.870Z,19.90
2018-09-13T07:31:39.858Z,21.90
2018-09-13T07:32:39.848Z,20.60
2018-09-13T07:33:39.870Z,19.20
2018-09-13T07:34:39.842Z,18.90
2018-09-13T07:35:39.812Z,20.70
2018-09-13T07:36:39.850Z,17.40
2018-09-13T07:37:39.789Z,21.40
2018-09-13T07:38:39.799Z,20.80
2018-09-13T07:39:39.787Z,21.80
2018-09-13T07:40:40.407Z,24.30
2018-09-13T07:41:39.743Z,23.10
2018-09-13T07:42:39.882Z,24.50
2018-09-13T07:43:39.727Z,20.50
2018-09-13T07:44:39.720Z,17.80
2018-09-13T07:45:39.724Z,21.30
2018-09-13T07:46:39.800Z,18.40
2018-09-13T07:47:39.677Z,18.30
2018-09-13T07:48:39.673Z,20.30
2018-09-13T07:49:39.955Z,19.50
2018-09-13T07:50:39.659Z,18.90
2018-09-13T07:51:39.655Z,21.00
2018-09-13T07:52:39.621Z,18.80
2018-09-13T07:53:39.630Z,16.60
2018-09-13T07:54:39.601Z,19.40
2018-09-13T07:55:39.662Z,20.20
2018-09-13T07:56:39.664Z,20.40
2018-09-13T07:57:39.596Z,18.00
2018-09-13T07:58:39.561Z,18.50
2018-09-13T07:59:39.550Z,18.30
2018-09-13T08:00:39.623Z,20.10
2018-09-13T08:01:39.590Z,19.20
2018-09-13T08:03:50.794Z,20.70
2018-09-13T08:04:50.565Z,19.40
2018-09-13T08:05:50.426Z,16.60
2018-09-13T08:06:50.299Z,18.00
2018-09-13T08:07:50.287Z,18.20
2018-09-13T08:08:50.251Z,18.60
2018-09-13T08:09:50.239Z,24.30
2018-09-13T08:10:50.281Z,17.30
2018-09-13T08:11:50.267Z,19.80
2018-09-13T08:12:50.243Z,17.90
2018-09-13T08:13:50.202Z,16.00
2018-09-13T08:14:50.183Z,18.00
2018-09-13T08:15:50.226Z,18.10
2018-09-13T08:16:50.176Z,17.20
2018-09-13T08:17:50.327Z,17.70
2018-09-13T08:18:50.205Z,16.50
2018-09-13T08:19:50.158Z,16.40
2018-09-13T08:20:50.139Z,16.10
2018-09-13T08:21:50.195Z,17.60
2018-09-13T08:22:50.094Z,18.40
2018-09-13T08:23:50.182Z,17.50
2018-09-13T08:24:50.066Z,18.50
2018-09-13T08:25:50.091Z,18.00
2018-09-13T08:26:50.047Z,16.90
2018-09-13T08:27:51.040Z,17.70
2018-09-13T08:28:50.050Z,16.10
2018-09-13T08:29:50.007Z,16.10
2018-09-13T08:30:50.084Z,17.00
2018-09-13T08:31:50.233Z,14.20
2018-09-13T08:32:50.031Z,15.30
2018-09-13T08:33:50.024Z,15.50
2018-09-13T08:34:50.101Z,16.70
2018-09-13T08:35:49.956Z,17.30
2018-09-13T08:36:50.012Z,17.30
2018-09-13T08:37:49.917Z,15.90
2018-09-13T08:38:49.909Z,19.20
2018-09-13T08:39:49.969Z,16.30
2018-09-13T08:40:49.889Z,15.20
2018-09-13T08:41:49.886Z,17.40
2018-09-13T08:42:49.897Z,16.40
2018-09-13T08:43:49.859Z,16.80
2018-09-13T08:44:49.855Z,18.40
2018-09-13T08:45:49.861Z,14.80
2018-09-13T08:46:49.823Z,15.90
2018-09-13T08:47:49.850Z,18.60
2018-09-13T08:48:49.804Z,15.90
2018-09-13T08:49:49.797Z,16.70
2018-09-13T08:50:49.799Z,15.20
2018-09-13T08:51:49.779Z,16.40
2018-09-13T08:52:49.757Z,14.60
2018-09-13T08:53:49.763Z,15.10
2018-09-13T08:54:49.778Z,13.10
2018-09-13T08:55:49.771Z,16.60
2018-09-13T08:56:49.730Z,15.00
2018-09-13T08:57:49.701Z,16.30
2018-09-13T08:58:49.693Z,13.70
2018-09-13T08:59:49.694Z,15.60
2018-09-13T09:00:49.728Z,14.50
2018-09-13T09:01:49.697Z,13.80
2018-09-13T09:02:49.694Z,14.20
2018-09-13T09:03:49.634Z,16.10
2018-09-13T09:04:49.620Z,15.60
2018-09-13T09:05:49.635Z,14.20
2018-09-13T09:06:49.615Z,14.40
2018-09-13T09:07:49.634Z,15.20
2018-09-13T09:08:49.580Z,14.80
2018-09-13T09:09:49.571Z,13.90
2018-09-13T09:10:49.588Z,13.90
2018-09-13T09:11:49.608Z,13.80
2018-09-13T09:12:49.570Z,14.60
2018-09-13T09:13:49.527Z,13.40
2018-09-13T09:14:49.510Z,14.90
2018-09-13T09:15:49.537Z,14.00
2018-09-13T09:16:49.490Z,15.10
2018-09-13T09:17:49.481Z,14.20
2018-09-13T09:18:49.512Z,13.10
2018-09-13T09:19:49.453Z,13.90
2018-09-13T09:20:49.443Z,16.00
2018-09-13T09:21:49.476Z,14.10
2018-09-13T09:22:49.427Z,15.90
2018-09-13T09:23:49.422Z,16.40
2018-09-13T09:24:49.426Z,14.90
2018-09-13T09:25:49.409Z,13.70
2018-09-13T09:26:49.381Z,13.40
2018-09-13T09:27:49.413Z,12.60
2018-09-13T09:28:49.365Z,13.60
2018-09-13T09:29:49.416Z,14.50
2018-09-13T09:30:49.359Z,15.80
2018-09-13T09:31:49.324Z,13.60
2018-09-13T09:32:49.346Z,14.50
2018-09-13T09:33:49.345Z,16.40
2018-09-13T09:34:49.418Z,13.50
2018-09-13T09:35:49.335Z,13.90
2018-09-13T09:36:49.267Z,13.50
2018-09-13T09:37:49.257Z,13.60
2018-09-13T09:38:49.283Z,15.80
2018-09-13T09:39:49.283Z,14.00
2018-09-13T09:40:49.226Z,13.40
2018-09-13T09:41:49.253Z,12.90
2018-09-13T09:42:49.200Z,12.80
2018-09-13T09:43:49.212Z,11.40
2018-09-13T09:44:49.195Z,11.10
2018-09-13T09:45:49.173Z,13.00
2018-09-13T09:46:49.156Z,11.80
2018-09-13T09:47:49.205Z,12.70
2018-09-13T09:48:49.135Z,13.40
2018-09-13T09:49:49.152Z,14.80
2018-09-13T09:50:49.111Z,11.10
2018-09-13T09:51:49.136Z,12.80
2018-09-13T09:52:49.089Z,11.10
2018-09-13T09:53:49.119Z,13.00
2018-09-13T09:54:49.125Z,11.70
2018-09-13T09:55:49.056Z,11.30
2018-09-13T09:56:49.050Z,10.80
2018-09-13T09:57:49.057Z,10.00
2018-09-13T09:58:49.024Z,9.30
2018-09-13T09:59:49.037Z,9.50
2018-09-13T10:00:49.024Z,10.50
2018-09-13T10:01:48.990Z,11.20
2018-09-13T10:02:48.984Z,9.70
2018-09-13T10:03:48.970Z,10.10
2018-09-13T10:04:48.975Z,9.90
2018-09-13T10:05:48.963Z,10.30
2018-09-13T10:06:48.971Z,9.10
2018-09-13T10:07:48.930Z,11.40
2018-09-13T10:08:48.952Z,10.80
2018-09-13T10:09:49.004Z,11.10
2018-09-13T10:10:48.943Z,7.80
2018-09-13T10:11:48.901Z,7.80
2018-09-13T10:12:48.883Z,9.10
2018-09-13T10:13:48.860Z,8.50
2018-09-13T10:14:48.905Z,7.90
2018-09-13T10:15:48.838Z,8.00
2018-09-13T10:16:48.868Z,9.10
2018-09-13T10:17:48.814Z,8.20
2018-09-13T10:18:48.800Z,7.80
2018-09-13T10:19:48.791Z,6.40
2018-09-13T10:20:48.809Z,6.60
2018-09-13T10:21:48.772Z,7.60
2018-09-13T10:22:48.803Z,6.70
2018-09-13T10:23:48.781Z,5.80
2018-09-13T10:24:48.747Z,7.90
2018-09-13T10:25:48.751Z,6.10
2018-09-13T10:26:48.830Z,7.20
2018-09-13T10:27:48.750Z,7.70
2018-09-13T10:28:48.758Z,5.00
2018-09-13T10:29:48.861Z,6.40
2018-09-13T10:30:48.664Z,5.70
2018-09-13T10:31:48.655Z,7.00
2018-09-13T10:32:48.682Z,5.90
2018-09-13T10:33:48.642Z,6.50
2018-09-13T10:34:48.641Z,5.30
2018-09-13T10:35:48.655Z,4.80
2018-09-13T10:36:48.626Z,6.20
2018-09-13T10:37:48.589Z,6.90
2018-09-13T10:38:48.594Z,5.40
2018-09-13T10:39:48.572Z,5.80
2018-09-13T10:40:48.643Z,7.00
2018-09-13T10:41:48.564Z,6.30
2018-09-13T10:42:48.533Z,7.10
2018-09-13T10:43:48.521Z,5.60
2018-09-13T10:44:48.557Z,6.10
2018-09-13T10:45:48.526Z,6.40
2018-09-13T10:46:48.488Z,6.70
2018-09-13T10:47:56.485Z,6.10
2018-09-13T10:48:48.472Z,6.30
2018-09-13T10:49:48.462Z,6.70
2018-09-13T10:50:48.488Z,5.70
2018-09-13T10:51:48.463Z,5.60
2018-09-13T10:52:48.426Z,6.20
2018-09-13T10:53:48.427Z,7.80
2018-09-13T10:54:48.447Z,5.30
2018-09-13T10:55:48.435Z,5.40
2018-09-13T10:56:48.400Z,5.40
2018-09-13T10:57:48.387Z,5.60
2018-09-13T10:58:48.367Z,5.60
2018-09-13T10:59:48.353Z,5.40
2018-09-13T11:00:48.362Z,5.60
2018-09-13T11:01:48.394Z,6.10
2018-09-13T11:02:48.317Z,4.80
2018-09-13T11:03:48.305Z,6.60
2018-09-13T11:04:48.297Z,6.90
2018-09-13T11:05:48.303Z,6.10
2018-09-13T11:06:48.273Z,7.10
2018-09-13T11:07:48.281Z,9.00
2018-09-13T11:08:48.252Z,6.80
2018-09-13T11:09:48.239Z,5.90
2018-09-13T11:10:48.321Z,8.30
2018-09-13T11:11:48.237Z,8.70
2018-09-13T11:12:48.217Z,7.40
2018-09-13T11:13:48.213Z,9.30
2018-09-13T11:14:48.182Z,9.80
2018-09-13T11:15:48.176Z,8.00
2018-09-13T11:16:48.186Z,11.30
2018-09-13T11:17:48.162Z,9.20
2018-09-13T11:18:48.138Z,11.20
2018-09-13T11:19:48.128Z,9.90
2018-09-13T11:20:48.123Z,9.70
2018-09-13T11:21:48.180Z,11.10
2018-09-13T11:22:48.111Z,12.60
2018-09-13T11:23:48.099Z,11.10
2018-09-13T11:28:14.031Z,14.30
2018-09-13T11:29:14.114Z,22.80
2018-09-13T11:30:13.927Z,21.10
2018-09-13T11:31:17.249Z,21.30
2018-09-13T11:32:16.863Z,21.00
2018-09-13T11:54:08.182Z,15.90
2018-09-13T11:55:09.128Z,19.90
2018-09-13T12:03:50.232Z,15.80
2018-09-13T12:06:08.901Z,21.50
2018-09-13T12:07:08.729Z,17.30
2018-09-13T12:08:08.613Z,19.70
2018-09-13T12:09:08.783Z,16.20
2018-09-13T12:10:08.558Z,12.90
2018-09-13T12:11:08.615Z,9.60
2018-09-13T12:12:08.530Z,10.80
2018-09-13T12:13:08.475Z,10.10
2018-09-13T12:14:08.662Z,6.40
2018-09-13T12:15:08.456Z,10.40
2018-09-13T12:16:08.499Z,7.80
2018-09-13T12:17:08.445Z,9.40
2018-09-13T12:18:08.450Z,8.10
2018-09-13T12:19:10.119Z,9.60
2018-09-13T12:20:09.965Z,9.30
2018-09-13T12:21:08.690Z,10.20
2018-09-13T12:22:08.385Z,11.40
2018-09-13T12:27:03.345Z,8.60
2018-09-13T12:28:02.817Z,10.50
2018-09-13T12:29:02.859Z,9.90
2018-09-13T12:30:02.819Z,9.90
2018-09-13T12:31:02.767Z,10.20
2018-09-13T12:32:02.698Z,10.40
2018-09-13T12:33:02.730Z,11.30
2018-09-13T12:34:02.691Z,11.10
2018-09-13T12:35:02.839Z,10.20
2018-09-13T12:36:02.749Z,12.50
2018-09-13T12:37:02.653Z,9.40
2018-09-13T12:38:02.660Z,7.90
2018-09-13T12:41:05.730Z,9.20
2018-09-13T12:42:05.423Z,8.70
2018-09-13T12:43:05.350Z,10.10
2018-09-13T12:44:05.591Z,7.90
2018-09-13T12:45:05.167Z,9.40
2018-09-13T12:46:05.314Z,10.00
2018-09-13T13:30:32.480Z,7.00
2018-09-13T13:31:33.437Z,12.50
2018-09-13T13:33:50.572Z,10.00
2018-09-13T13:34:50.608Z,11.50
2018-09-13T13:43:33.801Z,7.60
2018-09-13T13:47:49.527Z,7.60
2018-09-13T13:58:53.688Z,8.90
2018-09-13T14:18:13.367Z,7.50
2018-09-13T14:19:13.020Z,8.30
2018-09-13T14:20:13.072Z,8.40
2018-09-13T14:21:12.967Z,8.90
2018-09-13T14:22:12.856Z,8.30
2018-09-13T14:25:18.715Z,7.70
2018-09-13T14:26:19.837Z,10.30
2018-09-13T14:27:25.343Z,7.70
2018-09-13T14:28:18.193Z,8.00
2018-09-13T14:29:18.201Z,9.10
2018-09-13T14:31:44.654Z,8.70
2018-09-13T14:32:55.244Z,9.70
2018-09-13T14:36:22.656Z,9.10
2018-09-13T14:37:20.710Z,10.70
2018-09-13T14:38:20.254Z,9.70
2018-09-13T14:42:11.377Z,11.00
2018-09-13T14:43:11.128Z,11.20
2018-09-13T14:44:10.916Z,10.50
2018-09-13T14:45:10.879Z,13.10
2018-09-13T14:46:10.822Z,12.40
2018-09-13T14:47:10.788Z,13.80
2018-09-13T14:48:11.224Z,15.00
2018-09-13T14:49:10.745Z,9.90
2018-09-13T14:50:10.733Z,12.80
2018-09-13T14:51:10.770Z,12.00
2018-09-13T14:52:11.189Z,12.20
2018-09-13T14:53:10.736Z,11.60
2018-09-13T14:54:10.720Z,11.90
2018-09-13T15:12:32.475Z,10.70
2018-09-13T15:13:32.152Z,9.80
2018-09-13T15:14:32.180Z,9.90
2018-09-13T15:22:17.832Z,9.20
2018-09-13T15:23:17.342Z,10.30
2018-09-13T15:24:17.377Z,11.80
2018-09-13T15:25:18.302Z,9.70
2018-09-13T15:26:17.237Z,10.00
2018-09-13T15:27:17.219Z,9.90
2018-09-13T15:28:17.216Z,10.70
2018-09-13T15:29:17.199Z,10.00
2018-09-13T15:30:17.372Z,12.30
2018-09-13T15:31:17.194Z,12.60
2018-09-13T15:32:17.204Z,10.80
2018-09-13T15:33:17.151Z,10.40
2018-09-13T15:34:17.134Z,9.50
2018-09-13T15:35:17.394Z,9.20
2018-09-13T15:36:17.103Z,9.30
2018-09-13T15:37:17.126Z,12.90
2018-09-13T15:38:19.722Z,10.40